createdAt,value
2019-03-04T00:01:19.034Z,66.77
2019-03-04T00:03:48.974Z,67.70
2019-03-04T00:06:18.908Z,65.92
2019-03-04T00:08:48.857Z,65.71
2019-03-04T00:11:18.759Z,66.26
2019-03-04T00:13:48.820Z,64.62
2019-03-04T00:16:18.895Z,64.27
2019-03-04T00:18:48.844Z,65.01
2019-03-04T00:21:18.773Z,64.28
2019-03-04T00:23:48.763Z,63.66
2019-03-04T00:26:18.715Z,64.93
2019-03-04T00:28:49.102Z,63.79
2019-03-04T00:31:19.545Z,63.17
2019-03-04T00:33:49.804Z,64.40
2019-03-04T00:36:19.829Z,63.60
2019-03-04T00:38:49.748Z,63.37
2019-03-04T00:41:19.665Z,63.30
2019-03-04T00:43:49.634Z,63.16
2019-03-04T00:46:19.687Z,63.61
2019-03-04T00:48:49.575Z,63.21
2019-03-04T00:51:19.865Z,63.71
2019-03-04T00:53:49.767Z,63.70
2019-03-04T00:56:19.723Z,64.39
2019-03-04T00:58:49.874Z,63.80
2019-03-04T01:01:19.790Z,63.33
2019-03-04T01:03:49.703Z,63.09
2019-03-04T01:06:19.620Z,62.75
2019-03-04T01:08:49.744Z,63.11
2019-03-04T01:11:19.707Z,63.79
2019-03-04T01:13:49.625Z,62.87
2019-03-04T01:16:19.773Z,62.41
2019-03-04T01:18:50.172Z,63.72
2019-03-04T01:21:20.074Z,62.92
2019-03-04T01:23:51.548Z,63.17
2019-03-04T01:26:21.584Z,65.00
2019-03-04T01:28:51.503Z,63.67
2019-03-04T01:31:21.426Z,63.53
2019-03-04T01:33:51.368Z,62.83
2019-03-04T01:36:21.295Z,63.89
2019-03-04T01:38:51.465Z,62.83
2019-03-04T01:41:21.380Z,62.01
2019-03-04T01:43:51.513Z,61.84
2019-03-04T01:46:21.658Z,62.24
2019-03-04T01:48:51.536Z,63.44
2019-03-04T01:51:21.687Z,62.32
2019-03-04T01:53:51.605Z,62.52
2019-03-04T01:56:21.534Z,62.79
2019-03-04T01:58:51.438Z,62.57
2019-03-04T02:01:21.377Z,63.52
2019-03-04T02:03:51.290Z,63.48
2019-03-04T02:06:21.380Z,64.45
2019-03-04T02:08:51.347Z,63.76
2019-03-04T02:11:21.499Z,65.20
2019-03-04T02:13:51.529Z,64.35
2019-03-04T02:16:21.446Z,65.00
2019-03-04T02:18:51.456Z,64.76
2019-03-04T02:21:21.389Z,64.98
2019-03-04T02:23:51.303Z,67.06
2019-03-04T02:26:28.782Z,64.26
2019-03-04T02:28:58.730Z,64.37
2019-03-04T02:31:28.687Z,63.69
2019-03-04T02:33:58.576Z,63.83
2019-03-04T02:36:28.488Z,63.74
2019-03-04T02:38:58.400Z,64.09
2019-03-04T02:41:28.315Z,63.54
2019-03-04T02:43:58.399Z,63.58
2019-03-04T02:46:28.413Z,63.00
2019-03-04T02:48:58.327Z,64.75
2019-03-04T02:51:28.241Z,63.53
2019-03-04T02:53:58.160Z,63.57
2019-03-04T02:56:28.151Z,64.07
2019-03-04T02:58:58.106Z,63.46
2019-03-04T03:01:28.057Z,63.88
2019-03-04T03:03:57.973Z,63.91
2019-03-04T03:06:27.978Z,63.85
2019-03-04T03:08:57.909Z,62.90
2019-03-04T03:11:27.920Z,62.60
2019-03-04T03:13:57.951Z,64.25
2019-03-04T03:16:28.145Z,63.27
2019-03-04T03:18:58.067Z,62.81
2019-03-04T03:21:27.955Z,62.97
2019-03-04T03:23:59.365Z,63.23
2019-03-04T03:26:29.576Z,63.55
2019-03-04T03:28:59.583Z,65.47
2019-03-04T03:31:29.583Z,63.86
2019-03-04T03:33:59.490Z,63.73
2019-03-04T03:36:29.695Z,63.04
2019-03-04T03:38:59.682Z,62.84
2019-03-04T03:41:30.072Z,63.23
2019-03-04T03:43:59.992Z,66.86
2019-03-04T03:46:29.905Z,64.64
2019-03-04T03:49:00.234Z,63.24
2019-03-04T03:51:30.165Z,63.66
2019-03-04T03:54:00.076Z,63.25
2019-03-04T03:56:30.065Z,63.47
2019-03-04T03:58:59.967Z,65.52
2019-03-04T04:01:29.926Z,64.63
2019-03-04T04:03:59.992Z,63.67
2019-03-04T04:06:29.910Z,63.35
2019-03-04T04:08:59.893Z,63.47
2019-03-04T04:11:29.820Z,63.48
2019-03-04T04:13:59.733Z,63.46
2019-03-04T04:16:29.644Z,63.50
2019-03-04T04:18:59.585Z,63.50
2019-03-04T04:21:29.492Z,63.24
2019-03-04T04:23:59.388Z,63.17
2019-03-04T04:26:29.853Z,63.28
2019-03-04T04:29:08.068Z,64.19
2019-03-04T04:31:38.199Z,63.96
2019-03-04T04:34:08.189Z,63.17
2019-03-04T04:36:38.126Z,63.07
2019-03-04T04:39:09.407Z,62.92
2019-03-04T04:41:42.410Z,63.04
2019-03-04T04:44:17.618Z,63.03
2019-03-04T04:46:53.793Z,63.38
2019-03-04T04:49:25.486Z,63.05
2019-03-04T04:51:55.699Z,62.75
2019-03-04T04:54:25.910Z,63.01
2019-03-04T04:56:55.878Z,62.74
2019-03-04T04:59:25.789Z,62.90
2019-03-04T05:01:55.756Z,62.90
2019-03-04T05:04:26.025Z,63.03
2019-03-04T05:06:56.600Z,62.71
2019-03-04T05:09:26.736Z,62.92
2019-03-04T05:11:56.663Z,62.57
2019-03-04T05:14:26.553Z,62.81
2019-03-04T05:16:56.468Z,62.68
2019-03-04T05:19:27.068Z,62.88
2019-03-04T05:21:56.933Z,63.54
2019-03-04T05:24:26.848Z,63.60
2019-03-04T05:26:56.724Z,63.85
2019-03-04T05:29:27.333Z,64.18
2019-03-04T05:31:57.342Z,64.23
2019-03-04T05:34:27.510Z,64.80
2019-03-04T05:36:57.401Z,64.87
2019-03-04T05:39:27.394Z,64.68
2019-03-04T05:41:57.350Z,64.43
2019-03-04T05:44:27.286Z,64.22
2019-03-04T05:46:57.227Z,64.16
2019-03-04T05:49:27.191Z,65.31
2019-03-04T05:51:57.101Z,66.22
2019-03-04T05:54:27.044Z,64.98
2019-03-04T05:56:57.034Z,64.61
2019-03-04T05:59:27.195Z,64.45
2019-03-04T06:02:07.695Z,66.43
2019-03-04T06:04:38.543Z,65.55
2019-03-04T06:07:12.832Z,64.84
2019-03-04T06:09:42.830Z,66.31
2019-03-04T06:12:12.759Z,65.87
2019-03-04T06:14:42.754Z,64.79
2019-03-04T06:17:12.933Z,63.97
2019-03-04T06:19:44.082Z,64.63
2019-03-04T06:22:14.138Z,64.46
2019-03-04T06:24:44.079Z,63.79
2019-03-04T06:27:14.339Z,63.66
2019-03-04T06:29:44.273Z,63.26
2019-03-04T06:32:14.598Z,63.07
2019-03-04T06:34:44.717Z,63.17
2019-03-04T06:37:14.746Z,63.33
2019-03-04T06:39:44.690Z,64.21
2019-03-04T06:42:14.909Z,64.38
2019-03-04T06:44:45.065Z,64.51
2019-03-04T06:47:15.030Z,63.97
2019-03-04T06:49:45.014Z,65.91
2019-03-04T06:52:15.132Z,63.53
2019-03-04T06:55:23.965Z,63.42
2019-03-04T06:57:55.089Z,64.13
2019-03-04T07:00:51.921Z,63.88
2019-03-04T07:03:54.844Z,63.64
2019-03-04T07:06:24.869Z,63.59
2019-03-04T07:09:17.070Z,63.47
2019-03-04T07:11:56.739Z,62.78
2019-03-04T07:14:26.744Z,63.43
2019-03-04T07:16:56.780Z,63.10
2019-03-04T07:19:29.611Z,62.96
2019-03-04T07:21:59.757Z,62.73
2019-03-04T07:24:29.759Z,62.52
2019-03-04T07:26:59.687Z,63.32
2019-03-04T07:29:30.155Z,63.14
2019-03-04T07:32:00.157Z,62.79
2019-03-04T07:34:30.382Z,62.38
2019-03-04T07:37:00.493Z,61.51
2019-03-04T07:39:30.416Z,60.74
2019-03-04T07:42:01.174Z,61.23
2019-03-04T07:44:31.293Z,60.44
2019-03-04T07:47:01.200Z,60.72
2019-03-04T07:49:31.105Z,60.27
2019-03-04T07:52:01.351Z,60.19
2019-03-04T07:54:31.346Z,60.21
2019-03-04T07:57:01.828Z,60.19
2019-03-04T07:59:31.795Z,59.70
2019-03-04T08:02:01.917Z,59.19
2019-03-04T08:04:31.845Z,59.30
2019-03-04T08:07:40.547Z,59.31
2019-03-04T08:10:50.116Z,59.38
2019-03-04T08:13:29.114Z,59.91
2019-03-04T08:16:00.118Z,59.10
2019-03-04T08:18:30.126Z,59.32
2019-03-04T08:21:00.177Z,59.17
2019-03-04T08:23:30.094Z,58.69
2019-03-04T08:26:00.028Z,58.55
2019-03-04T08:28:29.949Z,58.45
2019-03-04T08:31:00.265Z,58.78
2019-03-04T08:33:30.534Z,58.88
2019-03-04T08:36:01.173Z,58.68
2019-03-04T08:38:31.262Z,57.57
2019-03-04T08:41:01.172Z,57.58
2019-03-04T08:43:31.215Z,57.90
2019-03-04T08:46:01.143Z,57.23
2019-03-04T08:48:31.123Z,56.81
2019-03-04T08:51:02.356Z,56.44
2019-03-04T08:53:32.473Z,57.03
2019-03-04T08:56:02.725Z,57.02
2019-03-04T08:58:34.305Z,56.63
2019-03-04T09:01:04.911Z,57.41
2019-03-04T09:03:34.855Z,56.75
2019-03-04T09:06:04.786Z,56.83
2019-03-04T09:08:34.960Z,56.91
2019-03-04T09:11:04.955Z,57.42
2019-03-04T09:13:35.028Z,56.63
2019-03-04T09:16:05.153Z,56.74
2019-03-04T09:18:35.088Z,56.71
2019-03-04T09:21:04.983Z,56.19
2019-03-04T09:23:35.058Z,55.97
2019-03-04T09:26:10.880Z,57.44
2019-03-04T09:28:41.330Z,56.13
2019-03-04T09:31:11.547Z,55.95
2019-03-04T09:33:42.268Z,55.79
2019-03-04T09:36:12.529Z,56.60
2019-03-04T09:38:42.976Z,55.31
2019-03-04T09:41:13.205Z,55.28
2019-03-04T09:43:43.203Z,55.75
2019-03-04T09:46:13.486Z,55.04
2019-03-04T09:48:43.758Z,55.60
2019-03-04T09:51:23.849Z,55.18
2019-03-04T09:53:46.055Z,55.43
2019-03-04T09:56:16.026Z,54.74
2019-03-04T09:58:46.047Z,54.41
2019-03-04T10:01:41.569Z,54.45
2019-03-04T10:04:53.420Z,55.35
2019-03-04T10:07:50.784Z,55.36
2019-03-04T10:10:47.751Z,54.04
2019-03-04T10:14:06.399Z,54.30
2019-03-04T10:17:31.686Z,54.07
2019-03-04T10:20:36.763Z,53.95
2019-03-04T10:23:46.532Z,53.75
2019-03-04T10:27:08.007Z,54.12
2019-03-04T10:30:13.039Z,54.75
2019-03-04T10:33:47.618Z,53.52
2019-03-04T10:37:04.935Z,52.61
2019-03-04T10:40:23.352Z,52.44
2019-03-04T10:43:48.442Z,51.80
2019-03-04T10:46:46.947Z,53.21
2019-03-04T10:49:16.999Z,52.39
2019-03-04T10:51:47.147Z,51.27
2019-03-04T10:54:17.157Z,51.73
2019-03-04T10:56:47.119Z,51.49
2019-03-04T10:59:17.153Z,50.32
2019-03-04T11:01:47.082Z,50.71
2019-03-04T11:04:17.029Z,50.16
2019-03-04T11:06:46.991Z,49.51
2019-03-04T11:09:17.419Z,48.65
2019-03-04T11:11:47.813Z,48.75
2019-03-04T11:14:18.021Z,47.29
2019-03-04T11:16:49.294Z,46.22
2019-03-04T11:19:20.018Z,46.38
2019-03-04T11:21:50.531Z,46.34
2019-03-04T11:24:20.673Z,50.18
2019-03-04T11:26:50.946Z,58.27
2019-03-04T11:29:21.432Z,61.93
2019-03-04T11:31:51.533Z,63.14
2019-03-04T11:34:21.449Z,64.86
2019-03-04T11:36:51.712Z,64.15
2019-03-04T11:39:51.484Z,63.43
2019-03-04T11:42:22.037Z,62.45
2019-03-04T11:44:52.059Z,65.08
2019-03-04T11:47:26.225Z,63.54
2019-03-04T11:49:56.139Z,63.69
2019-03-04T11:52:26.142Z,64.13
2019-03-04T11:54:56.331Z,66.23
2019-03-04T11:57:26.534Z,63.99
2019-03-04T11:59:56.547Z,67.66
2019-03-04T12:02:38.554Z,64.80
2019-03-04T12:05:03.956Z,65.50
2019-03-04T12:07:34.451Z,62.66
2019-03-04T12:10:06.857Z,64.97
2019-03-04T12:12:37.217Z,63.34
2019-03-04T12:15:09.227Z,60.33
2019-03-04T12:17:39.719Z,59.63
2019-03-04T12:20:11.870Z,59.47
2019-03-04T12:22:42.128Z,57.46
2019-03-04T12:25:14.214Z,60.94
2019-03-04T12:27:44.214Z,57.97
2019-03-04T12:30:18.428Z,55.84
2019-03-04T12:32:48.921Z,56.41
2019-03-04T12:35:19.227Z,56.77
2019-03-04T12:37:49.186Z,56.90
2019-03-04T12:40:19.380Z,54.40
2019-03-04T12:42:49.354Z,56.31
2019-03-04T12:45:19.610Z,56.26
2019-03-04T12:47:49.894Z,55.86
2019-03-04T12:50:23.147Z,55.27
2019-03-04T12:52:53.153Z,54.47
2019-03-04T12:55:23.284Z,54.12
2019-03-04T12:57:53.450Z,54.21
2019-03-04T13:00:24.085Z,53.90
2019-03-04T13:02:57.939Z,54.39
2019-03-04T13:05:26.081Z,54.36
2019-03-04T13:07:56.097Z,53.72
2019-03-04T13:10:26.183Z,53.54
2019-03-04T13:12:56.473Z,53.52
2019-03-04T13:15:26.652Z,52.54
2019-03-04T13:17:56.771Z,53.49
2019-03-04T13:20:27.443Z,53.71
2019-03-04T13:22:57.563Z,53.75
2019-03-04T13:25:27.787Z,53.25
2019-03-04T13:28:07.531Z,52.78
2019-03-04T13:30:29.534Z,51.98
2019-03-04T13:32:59.618Z,53.81
2019-03-04T13:35:29.683Z,51.69
2019-03-04T13:37:59.770Z,50.87
2019-03-04T13:40:29.851Z,48.35
2019-03-04T13:42:59.839Z,49.72
2019-03-04T13:45:30.450Z,47.82
2019-03-04T13:48:00.687Z,48.31
2019-03-04T13:50:30.717Z,47.64
2019-03-04T13:53:00.831Z,47.30
2019-03-04T13:55:30.780Z,48.66
2019-03-04T13:58:01.179Z,47.83
2019-03-04T14:00:32.296Z,45.67
2019-03-04T14:03:02.379Z,45.84
2019-03-04T14:05:32.581Z,44.97
2019-03-04T14:08:02.807Z,46.69
2019-03-04T14:10:35.402Z,45.28
2019-03-04T14:13:05.664Z,45.94
2019-03-04T14:15:38.484Z,44.61
2019-03-04T14:18:08.619Z,45.40
2019-03-04T14:20:38.702Z,45.93
2019-03-04T14:23:08.748Z,43.64
2019-03-04T14:25:38.995Z,44.22
2019-03-04T14:28:09.161Z,44.18
2019-03-04T14:30:39.128Z,44.10
2019-03-04T14:33:09.191Z,42.64
2019-03-04T14:35:39.069Z,43.36
2019-03-04T14:38:09.243Z,43.35
2019-03-04T14:40:39.157Z,43.93
2019-03-04T14:43:09.165Z,43.01
2019-03-04T14:45:39.064Z,42.48
2019-03-04T14:48:09.051Z,42.84
2019-03-04T14:50:39.590Z,43.77
2019-03-04T14:53:09.874Z,43.34
2019-03-04T14:55:39.850Z,42.62
2019-03-04T14:58:10.021Z,42.59
2019-03-04T15:00:41.971Z,42.66
2019-03-04T15:03:20.716Z,42.47
2019-03-04T15:05:43.735Z,42.84
2019-03-04T15:08:13.834Z,43.08
2019-03-04T15:10:43.795Z,43.52
2019-03-04T15:13:14.154Z,43.00
2019-03-04T15:15:45.710Z,42.09
2019-03-04T15:18:16.174Z,42.19
2019-03-04T15:20:46.099Z,43.29
2019-03-04T15:23:16.415Z,42.72
2019-03-04T15:25:46.621Z,41.74
2019-03-04T15:28:19.662Z,42.50
2019-03-04T15:30:53.052Z,42.82
2019-03-04T15:33:23.325Z,43.36
2019-03-04T15:35:53.255Z,42.49
2019-03-04T15:38:23.385Z,43.48
2019-03-04T15:40:53.615Z,43.98
2019-03-04T15:43:24.004Z,44.23
2019-03-04T15:45:54.258Z,43.74
2019-03-04T15:48:28.548Z,44.27
2019-03-04T15:50:58.778Z,43.64
2019-03-04T15:53:28.710Z,43.52
2019-03-04T15:55:58.672Z,43.65
2019-03-04T15:58:28.805Z,43.77
2019-03-04T16:00:59.352Z,43.58
2019-03-04T16:03:29.411Z,43.65
2019-03-04T16:05:59.534Z,43.04
2019-03-04T16:08:29.822Z,51.53
2019-03-04T16:10:59.897Z,63.30
2019-03-04T16:13:29.862Z,65.50
2019-03-04T16:15:59.846Z,64.73
2019-03-04T16:18:29.760Z,65.12
2019-03-04T16:20:59.664Z,71.70
2019-03-04T16:23:29.582Z,70.15
2019-03-04T16:26:03.464Z,66.53
2019-03-04T16:28:33.377Z,66.16
2019-03-04T16:31:03.668Z,67.84
2019-03-04T16:33:33.576Z,65.14
2019-03-04T16:36:03.611Z,65.53
2019-03-04T16:38:33.569Z,65.50
2019-03-04T16:41:03.701Z,63.42
2019-03-04T16:43:33.984Z,62.60
2019-03-04T16:46:04.178Z,64.35
2019-03-04T16:48:34.100Z,66.66
2019-03-04T16:51:04.217Z,64.74
2019-03-04T16:53:34.167Z,63.92
2019-03-04T16:56:04.099Z,64.50
2019-03-04T16:58:36.264Z,65.63
2019-03-04T17:01:06.693Z,63.01
2019-03-04T17:03:36.599Z,65.69
2019-03-04T17:06:06.561Z,66.67
2019-03-04T17:08:36.481Z,66.37
2019-03-04T17:11:06.583Z,65.45
2019-03-04T17:13:36.633Z,64.67
2019-03-04T17:16:07.255Z,63.49
2019-03-04T17:18:37.185Z,66.82
2019-03-04T17:21:07.340Z,68.28
2019-03-04T17:23:37.286Z,65.55
2019-03-04T17:26:07.502Z,63.31
2019-03-04T17:28:37.925Z,63.90
2019-03-04T17:31:08.088Z,64.42
2019-03-04T17:36:06.791Z,67.60
2019-03-04T17:38:36.938Z,64.78
2019-03-04T17:41:07.015Z,63.79
2019-03-04T17:43:37.012Z,64.71
2019-03-04T17:46:07.086Z,64.32
2019-03-04T17:48:37.312Z,63.36
2019-03-04T17:51:07.219Z,64.27
2019-03-04T17:53:37.458Z,64.30
2019-03-04T17:56:07.539Z,63.45
2019-03-04T17:58:37.508Z,63.78
2019-03-04T18:01:07.515Z,61.47
2019-03-04T18:03:37.420Z,63.90
2019-03-04T18:06:07.506Z,61.31
2019-03-04T18:08:37.522Z,60.93
2019-03-04T18:11:07.473Z,61.20
2019-03-04T18:13:37.382Z,61.29
2019-03-04T18:16:07.410Z,60.24
2019-03-04T18:18:37.502Z,62.72
2019-03-04T18:21:07.798Z,63.84
2019-03-04T18:23:37.754Z,60.27
2019-03-04T18:26:38.579Z,59.29
2019-03-04T18:29:20.157Z,61.20
2019-03-04T18:32:52.444Z,62.61
2019-03-04T18:36:05.515Z,59.92
2019-03-04T18:39:40.756Z,61.02
2019-03-04T18:42:59.325Z,60.99
2019-03-04T18:46:08.676Z,59.99
2019-03-04T18:48:58.834Z,63.33
2019-03-04T18:51:30.962Z,59.33
2019-03-04T18:54:14.375Z,59.95
2019-03-04T18:56:44.387Z,58.76
2019-03-04T18:59:14.602Z,57.85
2019-03-04T19:01:44.838Z,59.25
2019-03-04T19:04:14.851Z,58.03
2019-03-04T19:06:44.853Z,57.17
2019-03-04T19:09:15.288Z,60.96
2019-03-04T19:11:46.072Z,57.59
2019-03-04T19:14:16.218Z,56.63
2019-03-04T19:16:46.211Z,57.10
2019-03-04T19:19:16.097Z,59.41
2019-03-04T19:21:46.040Z,57.68
2019-03-04T19:24:18.602Z,60.59
2019-03-04T19:26:48.608Z,59.17
2019-03-04T19:29:18.659Z,60.32
2019-03-04T19:31:48.735Z,59.34
2019-03-04T19:34:21.273Z,57.30
2019-03-04T19:36:51.507Z,57.82
2019-03-04T19:39:21.543Z,58.22
2019-03-04T19:41:51.492Z,58.75
2019-03-04T19:44:21.406Z,60.32
2019-03-04T19:46:51.406Z,58.06
2019-03-04T19:49:21.355Z,56.85
2019-03-04T19:51:51.405Z,57.13
2019-03-04T19:54:22.205Z,55.98
2019-03-04T19:56:52.299Z,55.81
2019-03-04T19:59:22.263Z,57.94
2019-03-04T20:01:52.409Z,57.25
2019-03-04T20:04:22.365Z,58.54
2019-03-04T20:06:52.483Z,56.18
2019-03-04T20:09:23.635Z,58.31
2019-03-04T20:11:53.668Z,56.35
2019-03-04T20:14:25.303Z,59.38
2019-03-04T20:16:55.531Z,57.62
2019-03-04T20:19:25.548Z,55.41
2019-03-04T20:21:55.459Z,56.41
2019-03-04T20:24:25.553Z,55.97
2019-03-04T20:26:55.567Z,55.01
2019-03-04T20:29:25.612Z,55.96
2019-03-04T20:31:55.535Z,56.38
2019-03-04T20:34:25.495Z,56.26
2019-03-04T20:36:57.037Z,55.21
2019-03-04T20:39:27.046Z,55.43
2019-03-04T20:41:57.230Z,55.03
2019-03-04T20:44:27.192Z,54.61
2019-03-04T20:46:57.110Z,54.00
2019-03-04T20:49:27.151Z,53.35
2019-03-04T20:51:57.078Z,55.12
2019-03-04T20:54:26.989Z,54.16
2019-03-04T20:56:56.959Z,52.10
2019-03-04T20:59:28.887Z,53.72
2019-03-04T21:01:59.191Z,53.81
2019-03-04T21:04:30.214Z,55.08
2019-03-04T21:07:00.244Z,53.20
2019-03-04T21:09:30.470Z,52.93
2019-03-04T21:12:00.518Z,52.80
2019-03-04T21:14:30.617Z,51.34
2019-03-04T21:17:00.609Z,52.67
2019-03-04T21:19:30.761Z,52.55
2019-03-04T21:22:01.570Z,51.67
2019-03-04T21:24:31.532Z,51.87
2019-03-04T21:27:03.079Z,52.57
2019-03-04T21:30:17.451Z,55.38
2019-03-04T21:33:13.573Z,56.31
2019-03-04T21:36:44.980Z,55.97
2019-03-04T21:39:16.325Z,53.56
2019-03-04T21:42:05.784Z,53.49
2019-03-04T21:45:27.236Z,53.19
2019-03-04T21:48:15.958Z,53.23
2019-03-04T21:50:59.598Z,53.65
2019-03-04T21:53:38.364Z,53.88
2019-03-04T21:56:34.682Z,55.08
2019-03-04T21:59:06.519Z,53.55
2019-03-04T22:01:47.499Z,53.21
2019-03-04T22:04:18.481Z,55.27
2019-03-04T22:06:48.532Z,57.43
2019-03-04T22:09:18.528Z,56.34
2019-03-04T22:11:49.165Z,54.80
2019-03-04T22:14:19.479Z,55.79
2019-03-04T22:16:49.603Z,54.83
2019-03-04T22:19:19.522Z,54.56
2019-03-04T22:21:49.686Z,54.36
2019-03-04T22:24:19.618Z,56.57
2019-03-04T22:26:50.141Z,55.04
2019-03-04T22:29:20.042Z,54.78
2019-03-04T22:31:50.213Z,54.88
2019-03-04T22:34:20.214Z,54.47
2019-03-04T22:36:50.552Z,57.77
2019-03-04T22:39:20.688Z,57.03
2019-03-04T22:41:50.640Z,54.59
2019-03-04T22:44:20.776Z,56.02
2019-03-04T22:46:51.021Z,55.00
2019-03-04T22:49:21.295Z,53.10
2019-03-04T22:51:51.517Z,53.14
2019-03-04T22:54:21.582Z,53.88
2019-03-04T22:56:51.705Z,53.06
2019-03-04T22:59:21.588Z,54.71
2019-03-04T23:02:04.634Z,54.47
2019-03-04T23:04:57.154Z,54.60
2019-03-04T23:07:54.740Z,54.74
2019-03-04T23:10:41.975Z,53.29
2019-03-04T23:13:47.537Z,52.74
2019-03-04T23:16:21.660Z,52.38
2019-03-04T23:18:51.811Z,52.77
2019-03-04T23:21:21.720Z,52.93
2019-03-04T23:23:52.091Z,53.64
2019-03-04T23:26:22.021Z,53.52
2019-03-04T23:28:52.795Z,55.07
2019-03-04T23:31:22.739Z,54.48
2019-03-04T23:33:52.673Z,56.47
2019-03-04T23:36:22.844Z,56.19
2019-03-04T23:38:52.815Z,57.35
2019-03-04T23:41:22.732Z,55.74
2019-03-04T23:43:52.785Z,55.58
2019-03-04T23:46:22.715Z,55.77
2019-03-04T23:48:52.664Z,56.04
2019-03-04T23:51:22.574Z,56.13
2019-03-04T23:53:52.593Z,54.70
2019-03-04T23:56:22.615Z,54.49
2019-03-04T23:58:52.725Z,53.72
